WXM80 ListenWXM80 Stop

You find our weather info also at:

UK Metoffice

WeatherCloud

Weather Underground

Northeastern Weather Network

AWEKAS

Citizen Weather Observer Program (CWOP)

HAMweather, WeatherForYou, PWS Weather


Weather Underground History page Text

Daily Summary for July 1, 2017 Units:  English    Metric   Both
« Previous Day
Next Day »
Daily Weekly Monthly Yearly Custom
  High: Low: Average:
Temperature: 86.3 °F 70.6 °F 76.3 °F
Dew Point: 77.5 °F 67.6 °F 71.1 °F
Humidity: 93 % 69 % 84 %
Wind Speed: 8.2 mph 0.0 mph 1.6 mph
Wind Gust: 16.1 mph - -
Wind:- - South
Pressure: 29.95 in 29.82 in -
Precipitation: 0.01 in    
Historical Graphs
 
 
Tabular Data for July 1, 2017
Time Temperature Dew Point Pressure Wind Wind Speed Wind Gust Humidity Rainfall Rate (Hourly)
00:02 74.4 °F 68.9 °F 29.91 in South 1.1 mph 3.5 mph 83 % 0.00 in
00:07 74.5 °F 69.0 °F 29.91 in South 1.4 mph 3.5 mph 83 % 0.00 in
00:12 74.5 °F 69.0 °F 29.91 in South 2.8 mph 4.6 mph 83 % 0.00 in
00:17 74.5 °F 69.0 °F 29.91 in South 0.8 mph 3.5 mph 83 % 0.00 in
00:22 74.5 °F 69.0 °F 29.91 in SSW 0.7 mph 3.5 mph 83 % 0.00 in
00:27 74.5 °F 69.0 °F 29.91 in SSW 3.1 mph 4.6 mph 83 % 0.00 in
00:32 74.5 °F 69.0 °F 29.91 in SW 3.0 mph 5.8 mph 83 % 0.00 in
00:37 74.5 °F 69.0 °F 29.91 in SSW 0.1 mph 2.3 mph 83 % 0.00 in
00:42 74.5 °F 69.0 °F 29.91 in SW 2.0 mph 3.5 mph 83 % 0.00 in
00:47 74.5 °F 69.0 °F 29.91 in WSW 2.9 mph 6.9 mph 83 % 0.00 in
00:52 74.5 °F 69.0 °F 29.91 in SSW 3.4 mph 8.1 mph 83 % 0.00 in
00:57 74.4 °F 68.9 °F 29.92 in South 3.5 mph 5.8 mph 83 % 0.00 in
00:58 74.4 °F 68.9 °F 29.91 in SW 1.4 mph 4.0 mph 83 % 0.00 in
01:03 74.4 °F 68.9 °F 29.92 in SW 2.4 mph 5.0 mph 83 % 0.00 in
01:08 74.3 °F 68.8 °F 29.92 in South 1.7 mph 3.5 mph 83 % 0.00 in
01:13 74.2 °F 68.7 °F 29.92 in SSW 0.3 mph 2.3 mph 83 % 0.00 in
01:18 74.1 °F 68.6 °F 29.92 in South 0.4 mph 3.0 mph 83 % 0.00 in
01:23 74.0 °F 68.5 °F 29.92 in SSW 0.9 mph 3.5 mph 83 % 0.00 in
01:28 73.8 °F 68.3 °F 29.91 in SSW 0.3 mph 2.3 mph 83 % 0.00 in
01:33 73.7 °F 68.2 °F 29.91 in SSE 1.1 mph 4.6 mph 83 % 0.00 in
01:38 73.5 °F 68.0 °F 29.91 in SSW 0.4 mph 1.2 mph 83 % 0.00 in
01:43 73.4 °F 68.3 °F 29.91 in Calm   1.2 mph 84 % 0.00 in
01:48 73.2 °F 68.1 °F 29.91 in Calm   1.2 mph 84 % 0.00 in
01:53 73.1 °F 68.0 °F 29.91 in South 1.0 mph 4.6 mph 84 % 0.00 in
01:58 72.9 °F 67.8 °F 29.91 in SSE 0.2 mph 1.2 mph 84 % 0.00 in
02:03 72.8 °F 68.0 °F 29.91 in SSW 0.1 mph 1.2 mph 85 % 0.00 in
02:08 72.7 °F 67.9 °F 29.91 in SSW 0.4 mph 1.2 mph 85 % 0.00 in
02:13 72.5 °F 67.7 °F 29.90 in South 0.2 mph 1.2 mph 85 % 0.00 in
02:18 72.4 °F 68.0 °F 29.90 in SSE 0.9 mph 3.5 mph 86 % 0.00 in
02:23 72.2 °F 67.8 °F 29.90 in SE 1.0 mph 4.0 mph 86 % 0.00 in
02:28 72.2 °F 67.8 °F 29.90 in ESE 0.8 mph 2.3 mph 86 % 0.00 in
02:33 72.1 °F 68.0 °F 29.90 in SSE 0.3 mph 1.2 mph 87 % 0.00 in
02:38 72.0 °F 67.9 °F 29.90 in South 0.5 mph 2.3 mph 87 % 0.00 in
02:43 72.0 °F 67.9 °F 29.90 in SE 1.0 mph 3.5 mph 87 % 0.00 in
02:48 72.0 °F 67.9 °F 29.90 in SSE 0.1 mph 1.2 mph 87 % 0.00 in
02:53 71.9 °F 68.2 °F 29.89 in SSE 0.1 mph 3.5 mph 88 % 0.00 in
02:58 71.9 °F 68.2 °F 29.89 in SSW 1.3 mph 3.5 mph 88 % 0.00 in
03:03 71.9 °F 68.2 °F 29.90 in SSW 0.1 mph 3.5 mph 88 % 0.00 in
03:05 71.9 °F 68.2 °F 29.89 in SSW 0.3 mph 3.5 mph 88 % 0.00 in
03:10 71.9 °F 68.2 °F 29.89 in SE 1.1 mph 2.3 mph 88 % 0.00 in
03:15 71.9 °F 68.2 °F 29.89 in SSE 0.3 mph 1.2 mph 88 % 0.00 in
03:21 71.9 °F 68.2 °F 29.89 in SSE 0.1 mph 1.2 mph 88 % 0.00 in
03:26 71.9 °F 68.2 °F 29.89 in South 0.9 mph 3.5 mph 88 % 0.00 in
03:31 71.8 °F 68.1 °F 29.89 in Calm   4.0 mph 88 % 0.00 in
03:36 71.8 °F 68.1 °F 29.89 in South 1.0 mph 6.0 mph 88 % 0.00 in
03:41 71.8 °F 68.1 °F 29.89 in SSW 1.0 mph 7.0 mph 88 % 0.00 in
03:46 71.7 °F 68.0 °F 29.89 in SSW 1.0 mph 4.0 mph 88 % 0.00 in
03:51 71.7 °F 68.0 °F 29.89 in SE 0.7 mph 4.0 mph 88 % 0.00 in
03:56 71.6 °F 67.9 °F 29.89 in South 1.0 mph 4.0 mph 88 % 0.00 in
04:01 71.6 °F 67.9 °F 29.89 in SE 0.4 mph 1.2 mph 88 % 0.00 in
04:06 71.5 °F 67.8 °F 29.89 in South 0.5 mph 2.3 mph 88 % 0.00 in
04:11 71.5 °F 68.1 °F 29.89 in SSW 0.3 mph 3.5 mph 89 % 0.00 in
04:16 71.5 °F 68.1 °F 29.89 in WSW 0.1 mph 3.5 mph 89 % 0.00 in
04:21 71.5 °F 68.1 °F 29.90 in Calm   1.0 mph 89 % 0.00 in
04:26 71.4 °F 68.0 °F 29.90 in WSW 0.7 mph 2.3 mph 89 % 0.00 in
04:31 71.3 °F 67.9 °F 29.90 in SW 0.2 mph 1.2 mph 89 % 0.00 in
04:36 71.3 °F 67.9 °F 29.90 in SW 0.1 mph 1.2 mph 89 % 0.00 in
04:41 71.2 °F 67.8 °F 29.90 in SE 0.5 mph 4.6 mph 89 % 0.00 in
04:46 71.2 °F 67.8 °F 29.90 in ESE 0.6 mph 2.3 mph 89 % 0.00 in
04:51 71.1 °F 67.7 °F 29.90 in Calm   1.2 mph 89 % 0.00 in
04:56 71.1 °F 68.0 °F 29.90 in SE 0.2 mph 2.0 mph 90 % 0.00 in
05:01 71.0 °F 67.9 °F 29.90 in SE 0.1 mph 2.3 mph 90 % 0.00 in
05:06 71.0 °F 67.9 °F 29.90 in Calm   1.0 mph 90 % 0.00 in
05:11 70.9 °F 67.8 °F 29.91 in Calm   1.2 mph 90 % 0.00 in
05:16 70.8 °F 67.7 °F 29.91 in WSW 0.1 mph 2.3 mph 90 % 0.00 in
05:21 70.8 °F 67.7 °F 29.91 in WSW 0.1 mph 1.0 mph 90 % 0.00 in
05:26 70.7 °F 67.6 °F 29.91 in Calm   1.2 mph 90 % 0.00 in
05:31 70.7 °F 67.6 °F 29.92 in SSW 0.4 mph 2.0 mph 90 % 0.00 in
05:36 70.6 °F 67.8 °F 29.92 in WSW 0.1 mph 1.2 mph 91 % 0.00 in
05:42 70.6 °F 67.8 °F 29.92 in Calm   1.2 mph 91 % 0.00 in
05:47 70.6 °F 67.8 °F 29.92 in Calm   3.5 mph 91 % 0.00 in
05:52 70.6 °F 68.2 °F 29.92 in WNW 0.1 mph 1.2 mph 92 % 0.00 in
05:57 70.6 °F 68.2 °F 29.92 in Calm   1.2 mph 92 % 0.00 in
06:02 70.6 °F 68.2 °F 29.92 in Calm     92 % 0.00 in
06:07 70.7 °F 68.3 °F 29.92 in Calm   1.2 mph 92 % 0.00 in
06:12 70.7 °F 68.3 °F 29.92 in SSW 0.1 mph 1.2 mph 92 % 0.00 in
06:22 70.9 °F 68.5 °F 29.92 in Calm     92 % 0.00 in
06:27 71.0 °F 68.6 °F 29.93 in East 0.1 mph 1.2 mph 92 % 0.00 in
06:32 71.2 °F 69.1 °F 29.93 in East 0.8 mph 5.0 mph 93 % 0.00 in
06:37 71.3 °F 68.9 °F 29.93 in Calm   1.2 mph 92 % 0.00 in
06:42 71.5 °F 69.4 °F 29.93 in SSW 0.1 mph 1.2 mph 93 % 0.00 in
06:47 71.7 °F 69.3 °F 29.93 in SSE 0.7 mph 2.3 mph 92 % 0.00 in
06:52 71.9 °F 69.4 °F 29.93 in Calm     92 % 0.00 in
06:57 72.2 °F 69.7 °F 29.93 in Calm     92 % 0.00 in
07:02 72.5 °F 70.0 °F 29.93 in SSE 0.1 mph 1.0 mph 92 % 0.00 in
07:07 72.9 °F 70.4 °F 29.93 in SE 0.1 mph   92 % 0.00 in
07:12 73.2 °F 70.4 °F 29.94 in Calm   1.2 mph 91 % 0.00 in
07:17 73.6 °F 70.8 °F 29.93 in SE 0.9 mph 2.3 mph 91 % 0.00 in
07:22 73.9 °F 71.1 °F 29.94 in Calm     91 % 0.00 in
07:27 74.2 °F 71.1 °F 29.94 in SE 0.3 mph 1.2 mph 90 % 0.00 in
07:32 74.5 °F 71.0 °F 29.93 in SE 1.5 mph 4.0 mph 89 % 0.00 in
07:37 74.6 °F 71.1 °F 29.93 in Calm   1.2 mph 89 % 0.00 in
07:42 74.8 °F 71.3 °F 29.94 in SE 1.2 mph 3.5 mph 89 % 0.00 in
07:47 74.8 °F 71.0 °F 29.94 in Calm   2.3 mph 88 % 0.00 in
07:53 74.9 °F 71.1 °F 29.94 in South 0.3 mph 2.3 mph 88 % 0.00 in
07:58 74.9 °F 71.1 °F 29.94 in South 0.6 mph 3.0 mph 88 % 0.00 in
08:03 75.0 °F 71.2 °F 29.94 in SE 1.2 mph 3.5 mph 88 % 0.00 in
08:08 75.1 °F 71.3 °F 29.94 in Calm   2.3 mph 88 % 0.00 in
08:13 75.1 °F 71.3 °F 29.94 in SE 0.6 mph 4.0 mph 88 % 0.00 in
08:18 75.2 °F 71.4 °F 29.94 in SE 0.1 mph   88 % 0.00 in
08:23 75.3 °F 71.5 °F 29.95 in WNW 0.6 mph 3.5 mph 88 % 0.00 in
08:25 75.4 °F 71.6 °F 29.94 in SE 1.4 mph 4.6 mph 88 % 0.00 in
08:30 75.5 °F 71.4 °F 29.94 in SSE 0.9 mph 2.3 mph 87 % 0.00 in
08:35 75.5 °F 71.7 °F 29.94 in SE 1.2 mph 6.0 mph 88 % 0.00 in
08:40 75.7 °F 71.6 °F 29.94 in SE 0.4 mph 3.5 mph 87 % 0.00 in
08:45 75.9 °F 71.8 °F 29.95 in SSE 1.7 mph 5.8 mph 87 % 0.00 in
08:50 76.0 °F 71.8 °F 29.94 in SSE 4.1 mph 6.9 mph 87 % 0.00 in
08:55 76.1 °F 71.6 °F 29.94 in SSE 3.4 mph 9.2 mph 86 % 0.00 in
09:00 76.2 °F 71.7 °F 29.94 in SE 4.3 mph 11.5 mph 86 % 0.00 in
09:05 76.2 °F 71.7 °F 29.94 in SE 1.9 mph 5.8 mph 86 % 0.00 in
09:11 76.2 °F 71.7 °F 29.94 in SE 0.6 mph 5.8 mph 86 % 0.00 in
09:16 76.3 °F 72.1 °F 29.93 in SE 1.9 mph 3.5 mph 87 % 0.00 in
09:21 76.5 °F 72.3 °F 29.93 in Calm   2.3 mph 87 % 0.00 in
09:26 76.7 °F 72.5 °F 29.93 in SSE 5.8 mph 10.4 mph 87 % 0.00 in
09:30 76.9 °F 72.4 °F 29.93 in SSE 0.9 mph 9.2 mph 86 % 0.00 in
09:36 77.1 °F 72.6 °F 29.93 in SE 6.0 mph 12.0 mph 86 % 0.00 in
09:41 77.2 °F 72.7 °F 29.92 in SSE 1.0 mph 6.0 mph 86 % 0.00 in
09:46 77.4 °F 72.5 °F 29.92 in SSE 5.0 mph 12.0 mph 85 % 0.00 in
09:51 77.5 °F 72.6 °F 29.92 in SSE 1.0 mph 9.0 mph 85 % 0.00 in
09:56 77.7 °F 72.8 °F 29.92 in SSE 2.0 mph 7.0 mph 85 % 0.00 in
10:01 77.6 °F 72.4 °F 29.92 in ESE 6.0 mph 10.4 mph 84 % 0.00 in
10:06 77.5 °F 72.6 °F 29.91 in SE 1.4 mph 6.9 mph 85 % 0.00 in
10:11 77.6 °F 72.7 °F 29.92 in SE 4.5 mph 13.0 mph 85 % 0.00 in
10:16 77.5 °F 72.3 °F 29.92 in South 5.3 mph 9.2 mph 84 % 0.00 in
10:21 77.5 °F 72.6 °F 29.91 in South 0.7 mph 2.3 mph 85 % 0.00 in
10:26 77.5 °F 72.6 °F 29.91 in SSE 1.9 mph 3.5 mph 85 % 0.00 in
10:31 77.6 °F 72.7 °F 29.91 in SSE 0.6 mph 3.5 mph 85 % 0.00 in
10:36 77.8 °F 72.9 °F 29.91 in SSE 4.0 mph 11.5 mph 85 % 0.00 in
10:41 78.2 °F 73.0 °F 29.91 in SSE 6.3 mph 12.7 mph 84 % 0.00 in
10:46 78.6 °F 73.4 °F 29.91 in South 1.2 mph 3.5 mph 84 % 0.00 in
10:51 78.9 °F 73.7 °F 29.91 in SSE 2.8 mph 6.9 mph 84 % 0.00 in
10:56 79.3 °F 74.0 °F 29.91 in South 6.3 mph 16.1 mph 84 % 0.00 in
11:01 79.6 °F 74.0 °F 29.91 in SSW 1.9 mph 5.8 mph 83 % 0.00 in
11:06 79.8 °F 74.2 °F 29.91 in SSE 1.2 mph 5.8 mph 83 % 0.00 in
11:11 80.2 °F 74.2 °F 29.90 in SSW 0.3 mph 1.2 mph 82 % 0.00 in
11:16 80.6 °F 74.2 °F 29.90 in South 5.7 mph 9.2 mph 81 % 0.00 in
11:21 81.1 °F 75.4 °F 29.90 in SSE 2.2 mph 6.9 mph 83 % 0.00 in
11:26 81.5 °F 75.1 °F 29.90 in South 0.8 mph 3.5 mph 81 % 0.00 in
11:31 82.3 °F 75.9 °F 29.90 in South 2.2 mph 3.0 mph 81 % 0.00 in
11:36 82.6 °F 74.7 °F 29.90 in Calm   5.8 mph 77 % 0.00 in
11:41 82.9 °F 74.6 °F 29.89 in SE 2.0 mph 8.1 mph 76 % 0.00 in
11:46 83.7 °F 76.1 °F 29.90 in SE 2.7 mph 6.0 mph 78 % 0.00 in
11:51 84.3 °F 77.5 °F 29.90 in SE 0.2 mph 3.0 mph 80 % 0.00 in
11:56 84.2 °F 74.6 °F 29.90 in SSE 0.6 mph 3.5 mph 73 % 0.00 in
12:01 84.3 °F 75.5 °F 29.89 in SW 0.6 mph 3.0 mph 75 % 0.00 in
12:06 84.6 °F 75.8 °F 29.89 in SW 2.5 mph 4.6 mph 75 % 0.00 in
12:11 85.0 °F 75.4 °F 29.90 in SE 1.4 mph 2.3 mph 73 % 0.00 in
12:16 85.0 °F 75.4 °F 29.89 in South 1.3 mph 4.6 mph 73 % 0.00 in
12:21 85.1 °F 75.1 °F 29.89 in SSE 0.7 mph 1.2 mph 72 % 0.00 in
12:26 85.1 °F 75.5 °F 29.89 in SSW 1.5 mph 4.6 mph 73 % 0.00 in
12:31 85.0 °F 75.0 °F 29.89 in SE 1.2 mph 3.5 mph 72 % 0.00 in
12:36 84.7 °F 75.1 °F 29.89 in South 0.9 mph 3.5 mph 73 % 0.00 in
12:41 84.5 °F 74.9 °F 29.89 in ESE 4.9 mph 11.0 mph 73 % 0.00 in
12:46 84.2 °F 74.6 °F 29.89 in South 1.2 mph 9.2 mph 73 % 0.00 in
12:51 84.4 °F 75.2 °F 29.89 in SSW 2.9 mph 5.0 mph 74 % 0.00 in
12:56 84.8 °F 75.2 °F 29.89 in SSE 2.4 mph 9.2 mph 73 % 0.00 in
13:01 85.0 °F 75.0 °F 29.89 in SSW 1.5 mph 3.5 mph 72 % 0.00 in
13:06 85.0 °F 75.4 °F 29.88 in SW 1.5 mph 3.5 mph 73 % 0.00 in
13:11 85.3 °F 75.7 °F 29.88 in SE 2.0 mph 3.5 mph 73 % 0.00 in
13:16 85.5 °F 75.0 °F 29.88 in South 3.1 mph 10.4 mph 71 % 0.00 in
13:17 85.5 °F 75.0 °F 29.88 in SW 3.1 mph 10.4 mph 71 % 0.00 in
13:22 85.9 °F 75.8 °F 29.87 in South 4.5 mph 6.9 mph 72 % 0.00 in
13:27 86.0 °F 74.6 °F 29.87 in South 2.6 mph 4.6 mph 69 % 0.00 in
13:32 86.2 °F 75.3 °F 29.87 in SSE 2.4 mph 5.8 mph 70 % 0.00 in
13:37 86.3 °F 74.9 °F 29.87 in SSW 1.6 mph 3.5 mph 69 % 0.00 in
13:42 86.2 °F 74.8 °F 29.86 in SSW 5.7 mph 13.8 mph 69 % 0.00 in
13:47 85.7 °F 74.4 °F 29.87 in South 2.1 mph 11.5 mph 69 % 0.00 in
13:52 85.3 °F 74.4 °F 29.87 in South 3.1 mph 6.9 mph 70 % 0.00 in
13:57 85.2 °F 75.1 °F 29.87 in SSW 4.7 mph 9.2 mph 72 % 0.00 in
14:02 85.1 °F 75.1 °F 29.87 in SSE 6.7 mph 16.1 mph 72 % 0.00 in
14:07 84.3 °F 74.3 °F 29.86 in SE 1.2 mph 5.8 mph 72 % 0.00 in
14:12 83.8 °F 74.2 °F 29.86 in WNW 1.3 mph 4.0 mph 73 % 0.00 in
14:17 83.0 °F 73.9 °F 29.86 in SSE 5.1 mph 11.5 mph 74 % 0.00 in
14:22 82.2 °F 73.9 °F 29.86 in SW 2.4 mph 4.6 mph 76 % 0.00 in
14:27 82.0 °F 73.7 °F 29.85 in South 1.4 mph 4.0 mph 76 % 0.00 in
14:32 81.4 °F 73.5 °F 29.86 in SSE 1.7 mph 4.6 mph 77 % 0.00 in
14:37 81.6 °F 74.5 °F 29.85 in SE 8.2 mph 12.0 mph 79 % 0.00 in
14:42 81.9 °F 74.0 °F 29.85 in SSE 1.4 mph 5.8 mph 77 % 0.00 in
14:47 82.1 °F 74.2 °F 29.85 in SSE 2.2 mph 3.5 mph 77 % 0.00 in
14:52 82.4 °F 74.8 °F 29.84 in SSW 0.5 mph 1.2 mph 78 % 0.00 in
14:57 82.9 °F 74.6 °F 29.84 in SE 1.4 mph 4.0 mph 76 % 0.00 in
15:02 83.3 °F 74.1 °F 29.84 in SSE 6.2 mph 16.1 mph 74 % 0.00 in
15:07 83.4 °F 73.8 °F 29.85 in SE 5.6 mph 10.4 mph 73 % 0.00 in
15:12 83.2 °F 74.0 °F 29.84 in SE 1.4 mph 3.5 mph 74 % 0.00 in
15:17 83.1 °F 73.9 °F 29.84 in South 0.2 mph 1.2 mph 74 % 0.00 in
15:22 82.9 °F 74.2 °F 29.84 in South 1.5 mph 3.5 mph 75 % 0.00 in
15:27 82.6 °F 73.9 °F 29.85 in SSW 3.4 mph 3.5 mph 75 % 0.00 in
15:32 82.2 °F 73.9 °F 29.85 in South 1.5 mph 5.0 mph 76 % 0.00 in
15:37 81.7 °F 73.4 °F 29.85 in SW 1.5 mph 5.0 mph 76 % 0.00 in
15:42 81.4 °F 73.1 °F 29.84 in SSE 0.1 mph 3.5 mph 76 % 0.00 in
15:47 81.1 °F 73.2 °F 29.85 in SSE 2.3 mph 4.0 mph 77 % 0.00 in
15:52 80.8 °F 72.9 °F 29.85 in SSE 2.7 mph 4.6 mph 77 % 0.00 in
15:57 80.4 °F 72.9 °F 29.85 in SE 1.1 mph 4.0 mph 78 % 0.00 in
16:03 80.3 °F 73.2 °F 29.85 in SSW 3.5 mph 6.9 mph 79 % 0.00 in
16:08 80.0 °F 72.9 °F 29.85 in South 3.8 mph 6.9 mph 79 % 0.00 in
16:13 79.8 °F 73.1 °F 29.85 in ESE 2.4 mph 5.8 mph 80 % 0.00 in
16:18 79.6 °F 72.9 °F 29.84 in South 2.9 mph 3.0 mph 80 % 0.00 in
16:23 79.3 °F 72.6 °F 29.84 in SW 5.7 mph 7.0 mph 80 % 0.00 in
16:28 79.2 °F 72.9 °F 29.84 in South 1.6 mph 5.0 mph 81 % 0.00 in
16:33 79.1 °F 72.8 °F 29.84 in South 3.1 mph 6.9 mph 81 % 0.00 in
16:38 78.8 °F 72.5 °F 29.84 in South 2.1 mph 4.6 mph 81 % 0.00 in
16:43 78.3 °F 72.3 °F 29.84 in SE 1.4 mph 4.6 mph 82 % 0.00 in
16:48 78.0 °F 72.4 °F 29.84 in SSE 1.4 mph 4.6 mph 83 % 0.00 in
16:53 77.7 °F 72.5 °F 29.83 in SSW 0.1 mph 3.5 mph 84 % 0.01 in
16:58 77.4 °F 72.5 °F 29.83 in SSW 2.6 mph 5.8 mph 85 % 0.01 in
17:03 77.1 °F 72.6 °F 29.83 in SSE 2.2 mph 4.6 mph 86 % 0.01 in
17:08 76.9 °F 73.1 °F 29.83 in SSE 3.3 mph 6.0 mph 88 % 0.01 in
17:13 76.9 °F 73.1 °F 29.83 in South 2.9 mph 5.8 mph 88 % 0.01 in
17:18 76.9 °F 72.7 °F 29.83 in SSW 1.8 mph 8.1 mph 87 % 0.01 in
17:23 76.8 °F 72.3 °F 29.83 in SSW 2.3 mph 7.0 mph 86 % 0.01 in
17:28 76.8 °F 72.3 °F 29.82 in South 3.5 mph 6.9 mph 86 % 0.01 in
17:33 76.8 °F 72.3 °F 29.83 in South 2.3 mph 4.6 mph 86 % 0.01 in
17:38 77.0 °F 72.5 °F 29.82 in SW 3.4 mph 5.8 mph 86 % 0.01 in
17:43 77.1 °F 72.2 °F 29.82 in South 2.3 mph 8.1 mph 85 % 0.01 in
17:48 77.1 °F 72.2 °F 29.83 in South 1.9 mph 4.0 mph 85 % 0.01 in
17:53 77.2 °F 72.3 °F 29.83 in South 4.0 mph 6.9 mph 85 % 0.00 in
17:58 77.2 °F 72.3 °F 29.83 in South 3.1 mph 6.9 mph 85 % 0.00 in
18:03 77.2 °F 72.0 °F 29.83 in SE 2.2 mph 3.5 mph 84 % 0.00 in
18:09 77.1 °F 72.2 °F 29.83 in SSW 4.1 mph 6.9 mph 85 % 0.00 in
18:13 77.0 °F 72.1 °F 29.82 in South 2.4 mph 5.0 mph 85 % 0.00 in
18:18 76.9 °F 72.0 °F 29.82 in SSE 0.5 mph 6.9 mph 85 % 0.00 in
18:24 76.8 °F 71.9 °F 29.82 in South 2.6 mph 4.6 mph 85 % 0.00 in
18:29 76.7 °F 71.8 °F 29.83 in South 3.9 mph 10.4 mph 85 % 0.00 in
18:34 76.7 °F 71.8 °F 29.83 in SSE 2.1 mph 4.6 mph 85 % 0.00 in
18:39 76.6 °F 71.7 °F 29.83 in SSE 1.3 mph 3.5 mph 85 % 0.00 in
18:44 76.5 °F 71.7 °F 29.82 in South 4.2 mph 9.2 mph 85 % 0.00 in
18:49 76.4 °F 71.6 °F 29.83 in South 0.6 mph 2.3 mph 85 % 0.00 in
18:54 76.3 °F 71.8 °F 29.84 in SW 3.8 mph 9.0 mph 86 % 0.00 in
18:59 76.2 °F 71.7 °F 29.84 in SSW 2.7 mph 6.9 mph 86 % 0.00 in
19:04 76.1 °F 71.6 °F 29.84 in SW 3.2 mph 6.9 mph 86 % 0.00 in
19:09 76.0 °F 71.5 °F 29.84 in SE 2.9 mph 5.8 mph 86 % 0.00 in
19:14 75.9 °F 71.8 °F 29.85 in SE 4.0 mph 9.2 mph 87 % 0.00 in
19:19 75.7 °F 71.6 °F 29.84 in South 3.7 mph 5.0 mph 87 % 0.00 in
19:24 75.6 °F 71.5 °F 29.84 in SSW 3.3 mph 9.2 mph 87 % 0.00 in
19:29 75.5 °F 71.7 °F 29.84 in SW 3.6 mph 5.8 mph 88 % 0.00 in
19:34 75.3 °F 71.5 °F 29.84 in SSE 1.3 mph 9.2 mph 88 % 0.00 in
19:39 75.3 °F 71.5 °F 29.84 in South 1.6 mph 6.9 mph 88 % 0.00 in
19:44 75.2 °F 71.4 °F 29.83 in South 4.3 mph 5.8 mph 88 % 0.00 in
19:49 75.1 °F 71.6 °F 29.83 in SE 0.4 mph 3.5 mph 89 % 0.00 in
19:54 75.1 °F 71.6 °F 29.83 in SE 1.1 mph 6.0 mph 89 % 0.00 in
19:59 75.1 °F 71.6 °F 29.83 in SE 0.7 mph 2.3 mph 89 % 0.00 in
20:04 75.1 °F 71.6 °F 29.82 in South 2.1 mph 4.6 mph 89 % 0.00 in
20:09 75.1 °F 71.6 °F 29.83 in SW 2.0 mph 4.6 mph 89 % 0.00 in
20:14 75.0 °F 71.5 °F 29.82 in SSW 1.0 mph 3.5 mph 89 % 0.00 in
20:19 74.9 °F 71.4 °F 29.83 in SSW 2.1 mph 5.8 mph 89 % 0.00 in
20:24 74.9 °F 71.4 °F 29.84 in SSW 4.4 mph 8.1 mph 89 % 0.00 in
20:29 74.9 °F 71.4 °F 29.84 in SSW 4.4 mph 6.9 mph 89 % 0.00 in
20:34 74.8 °F 71.3 °F 29.84 in West 4.2 mph 5.0 mph 89 % 0.00 in
20:39 74.8 °F 71.3 °F 29.84 in SW 1.6 mph 4.0 mph 89 % 0.00 in
20:44 74.7 °F 70.9 °F 29.83 in Calm   2.3 mph 88 % 0.00 in
20:50 74.5 °F 70.7 °F 29.84 in SW 0.5 mph 4.6 mph 88 % 0.00 in
20:55 74.4 °F 70.6 °F 29.83 in WSW 2.0 mph 6.9 mph 88 % 0.00 in
21:00 74.3 °F 70.5 °F 29.83 in WSW 0.2 mph 1.2 mph 88 % 0.00 in
21:05 74.2 °F 70.1 °F 29.83 in SSW 0.7 mph 3.5 mph 87 % 0.00 in
21:10 74.0 °F 69.9 °F 29.83 in SSW 0.3 mph 2.3 mph 87 % 0.00 in
21:15 73.9 °F 69.8 °F 29.83 in Calm     87 % 0.00 in
21:20 73.8 °F 69.3 °F 29.83 in SW 0.2 mph 1.2 mph 86 % 0.00 in
21:30 73.6 °F 69.2 °F 29.83 in SW 0.2 mph 2.3 mph 86 % 0.00 in
21:35 73.5 °F 69.1 °F 29.83 in SW 0.1 mph 2.3 mph 86 % 0.00 in
21:40 73.5 °F 69.1 °F 29.83 in Calm   1.2 mph 86 % 0.00 in
21:45 73.4 °F 69.0 °F 29.84 in Calm   1.2 mph 86 % 0.00 in
21:50 73.4 °F 69.0 °F 29.85 in WSW 0.3 mph 2.0 mph 86 % 0.00 in
21:55 73.3 °F 68.9 °F 29.84 in WSW 0.5 mph 3.5 mph 86 % 0.00 in
22:00 73.2 °F 68.8 °F 29.84 in WSW 0.8 mph 2.0 mph 86 % 0.00 in
22:05 73.1 °F 68.7 °F 29.85 in SW 0.5 mph 2.3 mph 86 % 0.00 in
22:10 73.1 °F 68.7 °F 29.85 in SSW 1.3 mph 3.5 mph 86 % 0.00 in
22:15 73.1 °F 68.7 °F 29.85 in South 1.3 mph 3.0 mph 86 % 0.00 in
22:20 73.1 °F 68.7 °F 29.86 in SSW 0.5 mph 2.0 mph 86 % 0.00 in
22:25 73.1 °F 68.7 °F 29.86 in SSW 1.6 mph 3.5 mph 86 % 0.00 in
22:30 73.1 °F 68.7 °F 29.86 in SW 1.1 mph 3.5 mph 86 % 0.00 in
22:33 73.0 °F 68.6 °F 29.86 in SSW 1.5 mph 3.5 mph 86 % 0.00 in
22:39 73.0 °F 68.6 °F 29.86 in SW 0.3 mph 1.2 mph 86 % 0.00 in
22:44 72.9 °F 68.8 °F 29.86 in WSW 0.2 mph 2.3 mph 87 % 0.00 in
22:49 72.8 °F 68.7 °F 29.86 in WSW 0.9 mph 3.5 mph 87 % 0.00 in
22:54 72.6 °F 68.5 °F 29.86 in SW 0.8 mph 2.3 mph 87 % 0.00 in
22:59 72.6 °F 68.5 °F 29.86 in Calm     87 % 0.00 in
23:04 72.5 °F 68.4 °F 29.86 in WSW 0.3 mph 1.2 mph 87 % 0.00 in
23:09 72.4 °F 68.6 °F 29.86 in SW 0.2 mph 1.2 mph 88 % 0.00 in
23:14 72.2 °F 68.4 °F 29.86 in WSW 2.7 mph 3.5 mph 88 % 0.00 in
23:19 72.2 °F 68.4 °F 29.86 in SW 1.6 mph 3.5 mph 88 % 0.00 in
23:24 72.1 °F 68.3 °F 29.86 in SW 0.7 mph 6.0 mph 88 % 0.00 in
23:29 72.0 °F 68.6 °F 29.86 in WSW 1.3 mph 3.5 mph 89 % 0.00 in
23:34 71.9 °F 68.5 °F 29.86 in SW 1.2 mph 5.0 mph 89 % 0.00 in
23:40 71.9 °F 68.5 °F 29.86 in WSW 0.1 mph   89 % 0.00 in
23:45 71.9 °F 68.5 °F 29.86 in WSW 0.1 mph 1.2 mph 89 % 0.00 in
23:49 71.8 °F 68.4 °F 29.86 in SSW 1.4 mph 4.6 mph 89 % 0.00 in
23:55 71.8 °F 68.4 °F 29.86 in SSW 0.6 mph 2.3 mph 89 % 0.00 in
Crab Meadow Weather
Compliments of Weather Underground - 3 mb

Script developed by  Jim McMurry - jmcmurry@mwt.net Adapted for the template by  Wim van der Kuil - Leuven-Template.eu

Recycling: Recycling 1 aluminum can saves enough energy to run your TV for 3 hours. Recycling aluminum cans saves 95% of the energy used to make cans from virgin ore.